Time;durP1;ratioP1;P1;durP2;ratioP2;P2;SDS_P1;SDS_P2;PMS_P1;PMS_P2;Temp;Humidity;BMP_temperature;BMP_pressure;BME280_temperature;BME280_humidity;BME280_pressure;Samples;Min_cycle;Max_cycle;Signal;HPM_P1;HPM_P2
2023/03/08 00:00:16;;;;;;;6.70;3.60;;;;;;;-1.40;93.89;100302.75;6101942;19;20015;-75
2023/03/08 00:02:21;;;;;;;8.82;5.07;;;;;;;-1.40;94.21;100301.88;6101842;19;20014;-75
2023/03/08 00:04:26;;;;;;;9.00;5.22;;;;;;;-1.42;94.09;100299.31;6099142;19;20026;-75
2023/03/08 00:06:33;;;;;;;9.48;5.85;;;;;;;-1.40;94.25;100297.59;6100973;19;20048;-76
2023/03/08 00:08:39;;;;;;;10.35;5.07;;;;;;;-1.40;93.97;100294.16;6099147;19;20021;-76
2023/03/08 00:10:47;;;;;;;11.70;5.38;;;;;;;-1.47;93.47;100289.88;6097818;19;20021;-75
2023/03/08 00:12:52;;;;;;;12.20;5.43;;;;;;;-1.50;93.66;100295.00;6099996;19;20015;-75
2023/03/08 00:14:57;;;;;;;10.18;5.07;;;;;;;-1.54;93.81;100294.16;6100341;19;20637;-77
2023/03/08 00:17:01;;;;;;;8.68;5.05;;;;;;;-1.55;94.12;100285.59;6096165;19;20020;-74
2023/03/08 00:19:06;;;;;;;10.65;4.35;;;;;;;-1.57;94.04;100292.44;6100063;19;20014;-75
2023/03/08 00:21:13;;;;;;;11.55;5.32;;;;;;;-1.60;93.75;100289.03;6097122;19;20427;-75
2023/03/08 00:23:18;;;;;;;8.88;5.57;;;;;;;-1.55;94.55;100288.16;6099766;19;20030;-76
2023/03/08 00:25:23;;;;;;;8.55;4.70;;;;;;;-1.55;93.71;100293.31;6100087;19;20011;-75
2023/03/08 00:27:30;;;;;;;6.25;4.28;;;;;;;-1.55;94.30;100297.59;6098807;19;20241;-75
2023/03/08 00:29:40;;;;;;;8.07;4.00;;;;;;;-1.55;94.07;100297.59;6100761;19;20010;-76
2023/03/08 00:31:45;;;;;;;9.75;4.80;;;;;;;-1.58;93.98;100290.75;6100300;19;20494;-75
2023/03/08 00:33:54;;;;;;;10.70;5.72;;;;;;;-1.60;93.75;100281.28;6101714;19;20010;-75
2023/03/08 00:36:00;;;;;;;7.10;4.05;;;;;;;-1.59;94.00;100281.28;6101106;19;20057;-76
2023/03/08 00:38:05;;;;;;;9.60;4.13;;;;;;;-1.59;93.91;100277.84;6099454;19;20634;-75
2023/03/08 00:40:11;;;;;;;10.00;4.88;;;;;;;-1.60;94.65;100270.97;6095896;19;20052;-75
2023/03/08 00:42:16;;;;;;;10.80;5.75;;;;;;;-1.65;94.01;100270.13;6102041;19;20018;-76
2023/03/08 00:44:24;;;;;;;7.68;4.70;;;;;;;-1.68;94.55;100273.56;6100487;19;20007;-76
2023/03/08 00:46:29;;;;;;;9.88;4.28;;;;;;;-1.67;94.07;100271.84;6099367;19;20011;-75
2023/03/08 00:48:34;;;;;;;10.10;4.78;;;;;;;-1.72;94.22;100264.09;6098495;19;20010;-75
2023/03/08 00:50:39;;;;;;;7.57;4.18;;;;;;;-1.73;94.53;100270.13;6099268;19;20262;-76
2023/03/08 00:52:48;;;;;;;9.43;4.65;;;;;;;-1.68;94.98;100270.13;6094914;19;20590;-75
2023/03/08 00:54:53;;;;;;;8.02;3.83;;;;;;;-1.69;94.25;100269.25;6100398;19;20022;-75
2023/03/08 00:56:58;;;;;;;9.75;4.85;;;;;;;-1.63;94.55;100268.41;6101163;19;20014;-76
2023/03/08 00:59:03;;;;;;;10.43;4.28;;;;;;;-1.63;94.55;100266.69;6095559;19;20044;-75
2023/03/08 01:01:16;;;;;;;8.75;4.05;;;;;;;-1.57;93.97;100263.25;6098223;19;20014;-75
2023/03/08 01:03:21;;;;;;;6.70;4.15;;;;;;;-1.63;93.89;100260.69;6099714;19;20006;-75
2023/03/08 01:05:26;;;;;;;7.80;4.10;;;;;;;-1.71;93.81;100252.94;6097790;19;20010;-75
2023/03/08 01:07:31;;;;;;;9.77;4.88;;;;;;;-1.62;94.54;100259.81;6099118;19;20666;-75
2023/03/08 01:09:36;;;;;;;4.78;3.13;;;;;;;-1.66;93.88;100252.94;6097352;19;20094;-76
2023/03/08 01:11:43;;;;;;;7.20;4.03;;;;;;;-1.67;93.84;100251.22;6095504;19;20017;-76
2023/03/08 01:13:48;;;;;;;8.63;4.00;;;;;;;-1.62;94.18;100252.09;6093097;19;20015;-76
2023/03/08 01:15:53;;;;;;;9.05;4.38;;;;;;;-1.62;94.21;100244.34;6093077;19;20017;-75
2023/03/08 01:18:00;;;;;;;8.20;4.47;;;;;;;-1.68;93.76;100242.66;6096816;19;20876;-76
2023/03/08 01:20:06;;;;;;;11.70;3.97;;;;;;;-1.73;94.09;100236.63;6096122;19;20014;-75
2023/03/08 01:22:13;;;;;;;9.10;4.75;;;;;;;-1.79;94.38;100232.34;6095842;19;20006;-75
2023/03/08 01:24:18;;;;;;;10.63;4.38;;;;;;;-1.81;94.06;100233.19;6098617;19;20011;-75
2023/03/08 01:26:24;;;;;;;12.70;4.80;;;;;;;-1.84;94.09;100210.88;6099262;19;20031;-76
2023/03/08 01:28:31;;;;;;;6.43;3.92;;;;;;;-1.87;93.93;100222.88;6098800;19;20028;-75
2023/03/08 01:30:36;;;;;;;8.27;4.13;;;;;;;-1.83;94.61;100212.59;6096799;19;20052;-77
2023/03/08 01:32:41;;;;;;;8.55;4.38;;;;;;;-1.90;94.43;100212.59;6098301;19;20561;-76
2023/03/08 01:34:49;;;;;;;7.65;4.43;;;;;;;-1.94;93.94;100209.16;6097417;19;20011;-76
2023/03/08 01:36:55;;;;;;;5.97;3.70;;;;;;;-1.95;94.20;100210.00;6097496;19;20044;-77
2023/03/08 01:39:03;;;;;;;7.32;3.90;;;;;;;-1.98;94.46;100202.28;6093321;19;20018;-76
2023/03/08 01:41:09;;;;;;;9.05;3.92;;;;;;;-1.95;95.37;100199.69;6098653;19;20047;-76
2023/03/08 01:43:24;;;;;;;9.90;4.93;;;;;;;-1.98;95.21;100197.13;6075426;19;20018;-76
2023/03/08 01:45:59;;;;;;;9.68;5.00;;;;;;;-2.01;95.17;100197.13;6092506;19;20006;-76
2023/03/08 01:48:04;;;;;;;7.20;4.40;;;;;;;-2.03;95.00;100199.72;6095564;19;20071;-77
2023/03/08 01:50:13;;;;;;;10.95;5.63;;;;;;;-1.97;95.38;100198.88;6094373;19;20103;-77
2023/03/08 01:52:21;;;;;;;8.77;5.55;;;;;;;-1.83;95.73;100201.44;6100395;19;20003;-77
2023/03/08 01:54:31;;;;;;;12.55;5.20;;;;;;;-1.56;95.44;100209.13;6103268;19;20380;-77
2023/03/08 01:56:37;;;;;;;12.48;4.47;;;;;;;-1.55;94.91;100199.72;6105359;19;20044;-76
2023/03/08 01:58:46;;;;;;;8.93;4.40;;;;;;;-1.49;94.57;100202.25;6103440;19;20021;-76
2023/03/08 02:00:51;;;;;;;10.73;5.22;;;;;;;-1.43;94.64;100189.34;6074528;19;20030;-77
2023/03/08 02:03:01;;;;;;;8.57;5.35;;;;;;;-1.24;94.60;100184.16;6095836;19;20532;-77
2023/03/08 02:05:08;;;;;;;8.63;4.68;;;;;;;-1.20;94.35;100191.03;6098537;19;20239;-77
2023/03/08 02:07:15;;;;;;;10.30;5.07;;;;;;;-1.20;94.12;100185.88;6080043;19;20011;-77
2023/03/08 02:09:21;;;;;;;11.50;5.30;;;;;;;-1.20;93.96;100183.28;6100904;19;20028;-76
2023/03/08 02:11:26;;;;;;;8.38;4.63;;;;;;;-1.17;94.05;100171.25;6103324;19;20010;-77
2023/03/08 02:13:32;;;;;;;13.82;5.18;;;;;;;-1.18;93.95;100163.53;6103703;19;20715;-77
2023/03/08 02:15:37;;;;;;;13.77;5.13;;;;;;;-1.11;93.79;100160.03;6104237;19;20014;-77
2023/03/08 02:17:43;;;;;;;10.30;4.60;;;;;;;-1.07;93.72;100159.19;6103094;19;20039;-77
2023/03/08 02:19:55;;;;;;;10.85;5.75;;;;;;;-1.05;93.38;100151.44;6101291;19;20027;-77
2023/03/08 02:22:00;;;;;;;9.32;4.50;;;;;;;-1.07;93.37;100154.03;6103966;19;20051;-76
2023/03/08 02:24:20;;;;;;;9.75;4.47;;;;;;;-1.08;93.20;100144.56;6101403;19;20019;-77
2023/03/08 02:26:25;;;;;;;11.32;5.13;;;;;;;-1.06;93.07;100152.31;6102575;19;20018;-77
2023/03/08 02:28:31;;;;;;;5.93;3.45;;;;;;;-1.03;93.01;100147.13;6104320;19;20014;-77
2023/03/08 02:30:38;;;;;;;7.90;4.30;;;;;;;-1.00;93.14;100129.06;6105100;19;20014;-78
2023/03/08 02:32:43;;;;;;;7.72;4.20;;;;;;;-0.97;92.81;100129.91;6104033;19;20590;-77
2023/03/08 02:34:48;;;;;;;8.93;4.68;;;;;;;-0.95;92.99;100124.72;6104741;19;20015;-77
2023/03/08 02:36:55;;;;;;;9.70;4.28;;;;;;;-0.99;92.59;100129.06;6101741;19;20014;-76
2023/03/08 02:39:00;;;;;;;10.20;4.38;;;;;;;-0.98;92.66;100128.19;6102663;19;20031;-76
2023/03/08 02:41:10;;;;;;;10.13;4.82;;;;;;;-1.00;92.43;100132.50;6107379;19;21010;-76
2023/03/08 02:43:15;;;;;;;9.07;4.28;;;;;;;-1.03;92.67;100129.06;6105617;19;20593;-76
2023/03/08 02:45:20;;;;;;;7.15;4.53;;;;;;;-1.05;92.67;100131.69;6108365;19;20495;-76
2023/03/08 02:47:25;;;;;;;7.43;4.18;;;;;;;-1.06;92.66;100137.69;6110575;19;20335;-77
2023/03/08 02:49:30;;;;;;;11.95;5.35;;;;;;;-1.02;92.47;100141.97;6110527;19;20007;-76
2023/03/08 02:51:35;;;;;;;10.27;4.65;;;;;;;-1.09;92.85;100142.84;6110028;19;20014;-76
2023/03/08 02:53:44;;;;;;;15.18;5.15;;;;;;;-1.11;93.05;100140.31;6113946;19;20005;-76
2023/03/08 02:55:49;;;;;;;9.35;4.60;;;;;;;-1.19;93.07;100136.03;6117251;19;20015;-75
2023/03/08 02:57:56;;;;;;;8.70;4.43;;;;;;;-1.27;92.90;100128.31;6113059;19;20014;-76
2023/03/08 03:00:01;;;;;;;8.77;4.28;;;;;;;-1.34;93.01;100121.50;6109607;19;20027;-76
2023/03/08 03:02:06;;;;;;;7.95;4.30;;;;;;;-1.43;93.27;100122.34;6106961;19;20251;-76
2023/03/08 03:04:11;;;;;;;8.10;3.97;;;;;;;-1.47;93.54;100104.34;6105408;19;20015;-76
2023/03/08 03:06:17;;;;;;;10.20;4.80;;;;;;;-1.53;93.45;100104.34;6108365;19;20010;-75
2023/03/08 03:08:22;;;;;;;7.78;4.28;;;;;;;-1.56;93.77;100102.66;6106899;19;20021;-76
2023/03/08 03:10:27;;;;;;;6.25;3.13;;;;;;;-1.58;93.73;100096.63;6104762;19;20023;-76
2023/03/08 03:12:33;;;;;;;8.25;3.83;;;;;;;-1.65;93.95;100100.97;6104531;19;20014;-75
2023/03/08 03:14:41;;;;;;;8.05;4.57;;;;;;;-1.63;94.48;100098.41;6102759;19;20683;-76
2023/03/08 03:16:46;;;;;;;9.90;4.75;;;;;;;-1.66;94.15;100094.09;6099550;19;20018;-75
2023/03/08 03:18:51;;;;;;;10.10;4.45;;;;;;;-1.59;94.11;100090.63;6100112;19;20499;-75
2023/03/08 03:20:55;;;;;;;7.90;3.90;;;;;;;-1.58;94.35;100086.31;6099765;19;20551;-76
2023/03/08 03:23:03;;;;;;;8.80;4.70;;;;;;;-1.53;94.43;100088.91;6093800;19;20014;-76
2023/03/08 03:25:10;;;;;;;10.80;4.88;;;;;;;-1.52;94.53;100080.31;6096693;19;20171;-76
2023/03/08 03:27:15;;;;;;;8.35;4.82;;;;;;;-1.51;94.68;100072.56;6099479;19;20022;-76
2023/03/08 03:29:20;;;;;;;11.38;5.45;;;;;;;-1.52;94.62;100070.88;6099577;19;20027;-76
2023/03/08 03:31:28;;;;;;;10.48;4.63;;;;;;;-1.52;94.56;100059.72;6101803;19;20014;-75
2023/03/08 03:33:35;;;;;;;13.05;5.38;;;;;;;-1.52;94.84;100055.41;6099827;19;20085;-76
2023/03/08 03:35:40;;;;;;;10.77;5.22;;;;;;;-1.51;94.87;100045.97;6100075;19;20015;-76
2023/03/08 03:37:46;;;;;;;7.55;4.63;;;;;;;-1.49;95.00;100044.22;6097852;19;20013;-76
2023/03/08 03:39:48;;;;;;;10.75;5.40;;;;;;;-1.48;94.65;100043.34;6099905;19;20800;-76
2023/03/08 03:41:53;;;;;;;11.80;5.70;;;;;;;-1.44;94.67;100045.91;6076543;19;20017;-76
2023/03/08 03:43:59;;;;;;;13.48;6.25;;;;;;;-1.37;94.80;100050.19;6099353;19;20011;-76
2023/03/08 03:46:05;;;;;;;15.13;6.57;;;;;;;-1.34;94.75;100052.75;6099397;19;20495;-76
2023/03/08 03:48:16;;;;;;;16.45;7.53;;;;;;;-1.28;94.91;100048.44;6096882;19;20018;-76
2023/03/08 03:50:21;;;;;;;16.42;8.23;;;;;;;-1.26;94.76;100046.69;6099915;19;20043;-75
2023/03/08 03:52:27;;;;;;;16.42;8.20;;;;;;;-1.21;95.01;100044.94;6099647;19;20097;-76
2023/03/08 03:54:32;;;;;;;19.25;9.13;;;;;;;-1.16;95.11;100043.19;6097572;19;20094;-76
2023/03/08 03:56:36;;;;;;;16.30;8.02;;;;;;;-1.08;95.00;100040.56;6100771;19;20047;-76
2023/03/08 03:58:41;;;;;;;19.70;9.10;;;;;;;-1.06;94.90;100042.28;6078010;19;20019;-76
2023/03/08 04:00:46;;;;;;;20.63;9.38;;;;;;;-1.05;94.87;100046.59;6097296;19;20068;-76
2023/03/08 04:02:51;;;;;;;22.75;10.20;;;;;;;-1.04;95.17;100037.13;6098509;19;20014;-76
2023/03/08 04:04:59;;;;;;;23.35;10.48;;;;;;;-0.99;95.03;100031.06;6100679;19;21234;-76
2023/03/08 04:07:04;;;;;;;25.63;10.90;;;;;;;-0.91;95.05;100023.28;6097811;19;20023;-76
2023/03/08 04:09:14;;;;;;;22.45;10.98;;;;;;;-0.97;95.21;100023.34;6101988;19;20025;-77
2023/03/08 04:11:22;;;;;;;24.95;10.23;;;;;;;-1.01;95.29;100029.38;6099695;19;20022;-76
2023/03/08 04:13:27;;;;;;;22.75;11.13;;;;;;;-0.99;95.22;100018.19;6100816;19;20014;-76
2023/03/08 04:15:32;;;;;;;26.05;12.05;;;;;;;-0.97;95.50;100019.03;6099824;19;20021;-76
2023/03/08 04:17:37;;;;;;;27.75;12.73;;;;;;;-0.96;95.31;100007.84;6099667;19;20108;-76
2023/03/08 04:19:42;;;;;;;25.45;12.35;;;;;;;-0.97;95.57;100013.88;6098771;19;20105;-76
2023/03/08 04:21:51;;;;;;;22.83;11.00;;;;;;;-0.92;95.47;100006.97;6102627;19;20592;-77
2023/03/08 04:23:56;;;;;;;27.13;13.18;;;;;;;-0.88;95.41;99998.31;6097718;19;20328;-77
2023/03/08 04:26:04;;;;;;;24.48;12.40;;;;;;;-0.79;95.31;99997.41;6098288;19;20014;-77
2023/03/08 04:28:11;;;;;;;29.50;12.90;;;;;;;-0.75;95.16;99988.75;6097080;19;20022;-76
2023/03/08 04:30:17;;;;;;;28.00;13.10;;;;;;;-0.71;95.07;99993.03;6100576;19;20018;-76
2023/03/08 04:32:22;;;;;;;35.47;14.63;;;;;;;-0.72;95.22;99987.88;6098856;19;20326;-77
2023/03/08 04:34:29;;;;;;;28.92;14.70;;;;;;;-0.71;95.34;99977.56;6099495;19;20014;-77
2023/03/08 04:36:34;;;;;;;34.00;14.48;;;;;;;-0.78;95.68;99969.88;6096373;19;20086;-77
2023/03/08 04:38:44;;;;;;;32.55;14.45;;;;;;;-0.74;95.74;99974.13;6098940;19;20435;-77
2023/03/08 04:41:04;;;;;;;30.20;14.95;;;;;;;-0.76;95.78;99969.00;6096012;19;20031;-77
2023/03/08 04:43:09;;;;;;;39.25;16.83;;;;;;;-0.79;95.67;99974.19;6094708;19;20039;-76
2023/03/08 04:45:15;;;;;;;41.95;18.58;;;;;;;-0.81;96.22;99982.81;6097405;19;20769;-77
2023/03/08 04:47:19;;;;;;;36.88;17.42;;;;;;;-0.83;96.11;99974.22;6098418;19;20038;-76
2023/03/08 04:49:25;;;;;;;33.60;15.73;;;;;;;-0.84;96.12;99972.50;6096557;19;20030;-77
2023/03/08 04:51:30;;;;;;;40.40;17.63;;;;;;;-0.81;96.38;99968.19;6097608;19;20031;-76
2023/03/08 04:53:35;;;;;;;37.53;18.30;;;;;;;-0.81;96.76;99957.88;6098090;19;20026;-77
2023/03/08 04:55:44;;;;;;;37.85;17.65;;;;;;;-0.79;96.95;99955.25;6100344;19;20090;-76
2023/03/08 04:57:51;;;;;;;43.85;19.00;;;;;;;-0.73;96.94;99947.50;6099971;19;20043;-76
2023/03/08 04:59:56;;;;;;;36.60;17.63;;;;;;;-0.73;97.08;99943.19;6097442;19;20298;-76
2023/03/08 05:02:01;;;;;;;47.28;21.83;;;;;;;-0.69;96.96;99944.00;6100829;19;20017;-76
2023/03/08 05:04:06;;;;;;;52.90;22.55;;;;;;;-0.65;96.83;99943.13;6099627;19;20589;-77
2023/03/08 05:06:15;;;;;;;50.53;21.75;;;;;;;-0.62;97.35;99932.75;6102803;19;20014;-76
2023/03/08 05:08:21;;;;;;;54.10;22.80;;;;;;;-0.55;97.32;99929.25;6097228;19;20495;-76
2023/03/08 05:10:26;;;;;;;49.50;22.88;;;;;;;-0.49;97.10;99923.19;6096728;19;20010;-76
2023/03/08 05:12:35;;;;;;;45.17;21.13;;;;;;;-0.45;96.98;99919.69;6098005;19;20031;-77
2023/03/08 05:14:43;;;;;;;48.20;20.95;;;;;;;-0.43;97.14;99917.09;6098056;19;20018;-79
2023/03/08 05:16:48;;;;;;;58.17;24.30;;;;;;;-0.35;96.97;99904.97;6096064;19;20018;-78
2023/03/08 05:18:53;;;;;;;61.92;23.05;;;;;;;-0.33;97.19;99913.53;6071136;19;20033;-77
2023/03/08 05:20:59;;;;;;;59.22;23.48;;;;;;;-0.25;96.88;99898.81;6097582;19;20711;-78
2023/03/08 05:23:03;;;;;;;54.28;22.33;;;;;;;-0.34;96.70;99881.72;6093932;19;20018;-77
2023/03/08 05:25:10;;;;;;;61.65;24.30;;;;;;;-0.39;96.52;99882.66;6096410;19;20039;-78
2023/03/08 05:27:15;;;;;;;63.42;24.50;;;;;;;-0.48;96.76;99874.09;6101351;19;20010;-78
2023/03/08 05:29:22;;;;;;;60.67;22.70;;;;;;;-0.49;96.85;99872.41;6105023;19;20020;-77
2023/03/08 05:31:27;;;;;;;51.15;22.20;;;;;;;-0.49;96.96;99871.56;6105639;19;20007;-77
2023/03/08 05:33:34;;;;;;;58.53;23.20;;;;;;;-0.37;96.72;99867.97;6106343;19;20059;-78
2023/03/08 05:35:39;;;;;;;56.97;23.60;;;;;;;-0.38;96.68;99864.53;6107005;19;20015;-77
2023/03/08 05:37:45;;;;;;;61.40;25.30;;;;;;;-0.47;96.75;99865.50;6108138;19;20007;-77
2023/03/08 05:39:52;;;;;;;57.55;24.23;;;;;;;-0.43;96.75;99870.63;6109624;19;20051;-78
2023/03/08 05:41:58;;;;;;;55.88;22.20;;;;;;;-0.41;96.89;99866.31;6111722;19;20158;-78
2023/03/08 05:44:03;;;;;;;56.58;22.65;;;;;;;-0.40;96.81;99855.97;6110392;19;20101;-77
2023/03/08 05:46:15;;;;;;;66.03;28.08;;;;;;;-0.41;97.09;99853.41;6115647;19;20139;-78
2023/03/08 05:48:20;;;;;;;56.38;24.42;;;;;;;-0.37;96.82;99844.75;6073159;19;20115;-78
2023/03/08 05:50:25;;;;;;;62.75;26.63;;;;;;;-0.31;96.80;99847.28;6117245;19;20151;-77
2023/03/08 05:52:33;;;;;;;80.60;28.08;;;;;;;-0.32;96.77;99848.97;6115841;19;20011;-77
2023/03/08 05:54:38;;;;;;;66.72;25.98;;;;;;;-0.33;97.16;99839.53;6114726;19;20043;-78
2023/03/08 05:56:43;;;;;;;67.13;26.92;;;;;;;-0.29;96.92;99845.50;6118264;19;20054;-78
2023/03/08 05:58:48;;;;;;;79.00;31.10;;;;;;;-0.34;97.01;99840.41;6117470;19;20040;-78
2023/03/08 06:00:53;;;;;;;72.75;28.50;;;;;;;-0.27;96.93;99831.69;6107913;19;20014;-78
2023/03/08 06:03:02;;;;;;;68.32;27.70;;;;;;;-0.20;96.89;99836.81;6106965;19;20719;-77
2023/03/08 06:05:08;;;;;;;77.45;30.38;;;;;;;-0.21;96.89;99830.81;6104482;19;20014;-78
2023/03/08 06:07:13;;;;;;;66.55;25.92;;;;;;;-0.19;96.96;99830.75;6107201;19;20011;-77
2023/03/08 06:09:19;;;;;;;85.70;32.22;;;;;;;-0.24;96.96;99825.66;6105768;19;20018;-78
2023/03/08 06:11:25;;;;;;;94.60;32.47;;;;;;;-0.19;96.86;99825.59;6102079;19;20079;-78
2023/03/08 06:13:30;;;;;;;92.15;31.40;;;;;;;-0.22;96.85;99829.06;6105913;19;20014;-77
2023/03/08 06:15:37;;;;;;;92.05;33.25;;;;;;;-0.28;96.95;99834.31;6105045;19;20021;-77
2023/03/08 06:17:43;;;;;;;94.32;32.88;;;;;;;-0.31;97.33;99842.97;6099016;19;20043;-77
2023/03/08 06:19:51;;;;;;;100.53;34.00;;;;;;;-0.30;97.25;99836.91;6104178;19;20693;-78
2023/03/08 06:21:55;;;;;;;75.82;30.50;;;;;;;-0.24;97.13;99835.97;6101698;19;20011;-78
2023/03/08 06:24:00;;;;;;;86.22;30.75;;;;;;;-0.26;97.25;99833.44;6102355;19;20018;-78
2023/03/08 06:26:08;;;;;;;77.05;32.17;;;;;;;-0.21;97.01;99838.53;6102741;19;20015;-77
2023/03/08 06:28:16;;;;;;;85.90;32.88;;;;;;;-0.20;96.97;99832.50;6100943;19;20014;-78
2023/03/08 06:30:23;;;;;;;98.25;35.45;;;;;;;-0.24;97.13;99836.84;6099161;19;20010;-78
2023/03/08 06:32:28;;;;;;;97.65;33.80;;;;;;;-0.21;97.10;99835.97;6102899;19;20039;-78
2023/03/08 06:34:34;;;;;;;79.40;30.52;;;;;;;-0.19;97.02;99834.19;6100172;19;20014;-78
2023/03/08 06:36:41;;;;;;;90.00;32.78;;;;;;;-0.20;96.77;99822.16;6102305;19;20010;-79
2023/03/08 06:38:49;;;;;;;96.45;33.85;;;;;;;-0.14;97.05;99831.56;6099547;19;20016;-78
2023/03/08 06:40:54;;;;;;;94.10;34.17;;;;;;;-0.20;96.71;99832.50;6101911;19;20048;-80
2023/03/08 06:43:00;;;;;;;99.50;37.78;;;;;;;-0.27;96.75;99831.69;6094169;19;20025;-77
2023/03/08 06:45:07;;;;;;;82.07;32.47;;;;;;;-0.32;96.66;99832.63;6100670;19;20007;-77
2023/03/08 06:47:13;;;;;;;102.43;36.47;;;;;;;-0.32;96.63;99824.91;6102089;19;20251;-78
2023/03/08 06:49:19;;;;;;;90.82;31.67;;;;;;;-0.33;96.76;99831.78;6102165;19;20359;-77
2023/03/08 06:51:26;;;;;;;88.22;33.97;;;;;;;-0.33;96.63;99824.03;6101993;19;20039;-77
2023/03/08 06:53:34;;;;;;;82.78;30.70;;;;;;;-0.38;96.65;99823.25;6099535;19;20007;-77
2023/03/08 06:55:41;;;;;;;89.65;32.20;;;;;;;-0.39;96.61;99820.69;6103681;19;20462;-78
2023/03/08 06:57:46;;;;;;;79.93;30.02;;;;;;;-0.44;96.61;99815.59;6102941;19;20048;-78
2023/03/08 06:59:51;;;;;;;81.60;33.03;;;;;;;-0.44;96.64;99823.34;6101403;19;20043;-78
2023/03/08 07:01:55;;;;;;;77.97;31.88;;;;;;;-0.42;96.76;99818.13;6102704;19;20018;-77
2023/03/08 07:04:03;;;;;;;86.25;35.55;;;;;;;-0.41;96.74;99815.53;6080438;19;20017;-78
2023/03/08 07:06:10;;;;;;;82.85;31.20;;;;;;;-0.42;96.74;99820.72;6107296;19;20010;-77
2023/03/08 07:08:15;;;;;;;88.90;30.20;;;;;;;-0.43;96.59;99819.03;6100746;19;20269;-78
2023/03/08 07:10:23;;;;;;;82.63;31.73;;;;;;;-0.48;96.74;99813.91;6102881;19;20015;-77
2023/03/08 07:12:29;;;;;;;76.40;31.83;;;;;;;-0.47;96.52;99807.88;6100937;19;20262;-77
2023/03/08 07:14:34;;;;;;;77.45;32.33;;;;;;;-0.47;96.61;99808.75;6100370;19;20495;-77
2023/03/08 07:16:41;;;;;;;78.78;30.55;;;;;;;-0.47;96.64;99811.31;6101676;19;20031;-77
2023/03/08 07:18:46;;;;;;;86.22;31.88;;;;;;;-0.43;96.71;99806.13;6095476;19;20542;-77
2023/03/08 07:20:53;;;;;;;88.38;32.33;;;;;;;-0.40;96.57;99806.06;6099978;19;20089;-78
2023/03/08 07:23:00;;;;;;;93.65;36.00;;;;;;;-0.41;96.51;99802.66;6101351;19;20022;-78
2023/03/08 07:25:08;;;;;;;82.10;33.28;;;;;;;-0.38;96.60;99800.03;6098273;19;20599;-77
2023/03/08 07:27:15;;;;;;;65.50;26.52;;;;;;;-0.35;96.34;99806.88;6100204;19;20017;-77
2023/03/08 07:29:20;;;;;;;61.38;28.35;;;;;;;-0.36;96.42;99793.13;6100067;19;20023;-78
2023/03/08 07:31:27;;;;;;;87.20;34.60;;;;;;;-0.35;96.22;99799.13;6100144;19;20642;-77
2023/03/08 07:33:32;;;;;;;67.18;27.17;;;;;;;-0.36;96.10;99795.69;6100330;19;20296;-77
2023/03/08 07:35:37;;;;;;;90.38;34.45;;;;;;;-0.32;96.16;99791.34;6099928;19;20020;-77
2023/03/08 07:37:46;;;;;;;93.93;35.85;;;;;;;-0.35;96.26;99789.66;6102295;19;20017;-77
2023/03/08 07:39:54;;;;;;;96.63;36.03;;;;;;;-0.30;96.50;99787.88;6102405;19;20021;-77
2023/03/08 07:41:59;;;;;;;92.78;34.45;;;;;;;-0.29;96.28;99792.16;6099212;19;20731;-77
2023/03/08 07:44:11;;;;;;;79.47;30.95;;;;;;;-0.26;96.34;99789.53;6102282;19;20018;-78
2023/03/08 07:46:16;;;;;;;89.03;33.40;;;;;;;-0.27;96.49;99787.81;6102451;19;20018;-77
2023/03/08 07:48:23;;;;;;;90.90;33.05;;;;;;;-0.20;96.22;99787.75;6100144;19;20055;-78
2023/03/08 07:50:30;;;;;;;90.53;36.08;;;;;;;-0.12;95.88;99788.50;6097093;19;20548;-78
2023/03/08 07:52:35;;;;;;;100.97;33.83;;;;;;;-0.17;96.15;99785.13;6100312;19;20051;-78
2023/03/08 07:54:42;;;;;;;112.82;36.00;;;;;;;-0.12;96.00;99789.34;6078276;19;20236;-78
2023/03/08 07:56:48;;;;;;;76.85;27.83;;;;;;;-0.05;95.74;99782.38;6102247;19;20247;-80
2023/03/08 07:58:57;;;;;;;72.10;28.90;;;;;;;-0.05;95.77;99779.81;6102383;19;20664;-77
2023/03/08 08:01:11;;;;;;;60.25;26.85;;;;;;;-0.12;95.41;99763.53;6097539;19;20022;-77
2023/03/08 08:03:16;;;;;;;98.93;34.97;;;;;;;-0.09;95.41;99765.22;6102325;19;20307;-77
2023/03/08 08:05:21;;;;;;;82.07;30.75;;;;;;;-0.04;95.53;99769.44;6098751;19;20003;-79
2023/03/08 08:07:27;;;;;;;87.05;32.78;;;;;;;-0.03;95.34;99762.53;6103368;19;20341;-78
2023/03/08 08:09:32;;;;;;;100.97;31.70;;;;;;;0.03;95.14;99767.63;6079382;19;20010;-78
2023/03/08 08:11:37;;;;;;;80.72;28.48;;;;;;;0.04;95.28;99768.47;6100514;19;20015;-78
2023/03/08 08:13:43;;;;;;;97.38;35.25;;;;;;;0.07;95.26;99763.25;6098207;19;20666;-79
2023/03/08 08:15:48;;;;;;;87.88;30.58;;;;;;;0.10;95.26;99763.22;6101901;19;20010;-78
2023/03/08 08:17:58;;;;;;;78.32;31.55;;;;;;;0.06;95.09;99761.56;6101541;19;20014;-79
2023/03/08 08:20:06;;;;;;;75.20;26.88;;;;;;;0.06;95.29;99766.72;6099918;19;20011;-78
2023/03/08 08:22:11;;;;;;;74.95;28.85;;;;;;;0.07;95.28;99758.94;6098257;19;20616;-78
2023/03/08 08:24:19;;;;;;;56.22;24.25;;;;;;;0.13;95.34;99763.16;6100830;19;20022;-78
2023/03/08 08:26:24;;;;;;;76.47;27.27;;;;;;;0.18;95.05;99769.94;6101745;19;20014;-79
2023/03/08 08:28:29;;;;;;;83.20;29.15;;;;;;;0.21;94.95;99767.34;6079409;19;20034;-78
2023/03/08 08:30:36;;;;;;;76.13;28.00;;;;;;;0.24;94.82;99766.44;6102276;19;20811;-77
2023/03/08 08:32:41;;;;;;;87.05;28.38;;;;;;;0.25;94.82;99759.53;6099146;19;20676;-79
2023/03/08 08:34:49;;;;;;;43.70;15.68;;;;;;;0.28;94.58;99759.50;6103310;19;20014;-78
2023/03/08 08:36:54;;;;;;;80.95;27.90;;;;;;;0.20;94.63;99757.03;6102219;19;20378;-78
2023/03/08 08:39:03;;;;;;;53.50;20.05;;;;;;;0.26;94.53;99754.34;6103995;19;20015;-76
2023/03/08 08:41:10;;;;;;;88.72;28.02;;;;;;;0.26;94.68;99749.16;6097396;19;20014;-77
2023/03/08 08:43:17;;;;;;;45.70;19.98;;;;;;;0.22;94.84;99745.78;6080600;19;20452;-77
2023/03/08 08:45:24;;;;;;;62.78;21.48;;;;;;;0.25;94.62;99744.88;6081160;19;20034;-78
2023/03/08 08:47:30;;;;;;;52.83;19.80;;;;;;;0.20;94.42;99744.97;6104476;19;20014;-79
2023/03/08 08:49:41;;;;;;;61.63;21.90;;;;;;;0.29;94.44;99743.97;6105773;19;20043;-78
2023/03/08 08:51:53;;;;;;;52.60;16.70;;;;;;;0.29;94.27;99746.56;6110460;19;20030;-77
2023/03/08 08:53:59;;;;;;;67.80;24.13;;;;;;;0.34;94.74;99749.94;6101920;19;20017;-76
2023/03/08 08:56:14;;;;;;;66.47;22.33;;;;;;;0.39;94.71;99747.25;6103238;19;20015;-78
2023/03/08 08:58:30;;;;;;;43.10;17.92;;;;;;;0.42;94.31;99734.25;6105177;19;20007;-79
2023/03/08 09:00:37;;;;;;;63.15;24.20;;;;;;;0.48;94.02;99733.34;6100052;19;20043;-76
2023/03/08 09:02:46;;;;;;;45.33;17.83;;;;;;;0.49;94.13;99737.63;6100743;19;20022;-76
2023/03/08 09:04:52;;;;;;;58.65;20.45;;;;;;;0.54;93.91;99739.22;6080153;19;20054;-79
2023/03/08 09:07:03;;;;;;;56.83;21.40;;;;;;;0.49;93.70;99737.63;6079788;19;20546;-78
2023/03/08 09:09:09;;;;;;;49.70;18.25;;;;;;;0.67;93.93;99716.59;6109139;19;20140;-77
2023/03/08 09:11:20;;;;;;;58.95;20.20;;;;;;;0.63;93.07;99707.19;6085249;19;20044;-78
2023/03/08 09:13:26;;;;;;;49.42;18.48;;;;;;;0.65;92.80;99700.25;6097315;19;20010;-78
2023/03/08 09:15:34;;;;;;;60.83;19.55;;;;;;;0.74;93.35;99683.72;6080027;19;20006;-78
2023/03/08 09:17:41;;;;;;;49.97;18.17;;;;;;;0.84;92.77;99686.13;6077565;19;20449;-79
2023/03/08 09:19:51;;;;;;;42.03;15.00;;;;;;;0.83;92.05;99687.00;6096226;19;20018;-77
2023/03/08 09:21:57;;;;;;;32.58;13.50;;;;;;;0.85;91.87;99682.66;6099262;19;20039;-79
2023/03/08 09:24:08;;;;;;;50.38;19.10;;;;;;;0.99;91.96;99684.94;6101816;19;20015;-79
2023/03/08 09:26:15;;;;;;;52.00;18.40;;;;;;;1.02;92.06;99684.03;6090617;19;20015;-77
2023/03/08 09:28:22;;;;;;;40.58;15.30;;;;;;;1.07;91.92;99677.88;6096868;19;20007;-77
2023/03/08 09:30:31;;;;;;;40.33;15.32;;;;;;;1.14;91.50;99673.47;6098179;19;20727;-77
2023/03/08 09:32:37;;;;;;;48.13;13.75;;;;;;;1.09;90.20;99668.38;6100466;19;20018;-76
2023/03/08 09:34:46;;;;;;;34.38;12.95;;;;;;;1.12;90.27;99672.63;6074898;19;20638;-77
2023/03/08 09:36:59;;;;;;;37.33;13.70;;;;;;;1.26;90.45;99674.91;6076017;19;20015;-76
2023/03/08 09:39:09;;;;;;;33.67;12.95;;;;;;;1.28;90.21;99671.41;6093938;19;20021;-77
2023/03/08 09:41:33;;;;;;;31.40;11.35;;;;;;;1.25;89.31;99668.91;6098937;19;20017;-77
2023/03/08 09:43:46;;;;;;;31.27;12.30;;;;;;;1.30;89.44;99663.63;6075064;19;20006;-78